createdAt,value
2018-08-03T04:00:55.446Z,0.00
2018-08-03T04:01:55.329Z,0.00
2018-08-03T04:03:48.072Z,0.00
2018-08-03T04:04:47.912Z,0.00
2018-08-03T04:06:40.630Z,0.00
2018-08-03T04:07:40.513Z,0.00
2018-08-03T04:09:33.225Z,0.00
2018-08-03T04:10:33.117Z,0.00
2018-08-03T04:12:25.854Z,0.00
2018-08-03T04:13:25.695Z,0.00
2018-08-03T04:15:18.401Z,0.00
2018-08-03T04:16:18.281Z,0.00
2018-08-03T04:18:10.969Z,0.00
2018-08-03T04:19:10.870Z,0.00
2018-08-03T04:21:03.590Z,0.00
2018-08-03T04:22:03.472Z,0.00
2018-08-03T04:23:56.161Z,0.00
2018-08-03T04:24:56.063Z,0.00
2018-08-03T04:26:48.757Z,0.00
2018-08-03T04:27:48.646Z,0.00
2018-08-03T04:29:41.335Z,0.00
2018-08-03T04:30:41.235Z,0.00
2018-08-03T04:32:33.948Z,0.00
2018-08-03T04:33:33.830Z,0.00
2018-08-03T04:35:26.518Z,0.00
2018-08-03T04:36:26.408Z,0.00
2018-08-03T04:38:19.125Z,0.00
2018-08-03T04:39:19.010Z,0.00
2018-08-03T04:41:11.768Z,0.00
2018-08-03T04:42:11.652Z,0.00
2018-08-03T04:44:04.330Z,0.00
2018-08-03T04:45:04.224Z,0.00
2018-08-03T04:46:56.927Z,0.00
2018-08-03T04:47:56.807Z,0.00
2018-08-03T04:49:49.512Z,0.00
2018-08-03T04:50:49.401Z,0.00
2018-08-03T04:52:42.116Z,0.00
2018-08-03T04:53:41.980Z,0.00
2018-08-03T04:55:34.666Z,0.00
2018-08-03T04:56:34.566Z,0.00
2018-08-03T04:58:27.275Z,0.00
2018-08-03T04:59:27.154Z,0.00
2018-08-03T05:01:19.842Z,0.00
2018-08-03T05:02:19.736Z,0.00
2018-08-03T05:04:12.451Z,0.00
2018-08-03T05:05:12.326Z,0.00
2018-08-03T05:07:05.021Z,0.00
2018-08-03T05:08:04.915Z,0.00
2018-08-03T05:09:57.633Z,0.00
2018-08-03T05:10:57.514Z,0.00
2018-08-03T05:12:50.235Z,0.00
2018-08-03T05:13:50.112Z,0.00
2018-08-03T05:15:42.792Z,0.00
2018-08-03T05:16:42.694Z,0.00
2018-08-03T05:18:35.399Z,0.00
2018-08-03T05:19:35.289Z,0.00
2018-08-03T05:21:27.969Z,0.00
2018-08-03T05:22:27.874Z,0.00
2018-08-03T05:24:20.632Z,0.00
2018-08-03T05:25:20.474Z,0.00
2018-08-03T05:27:13.156Z,0.00
2018-08-03T05:28:13.054Z,0.00
2018-08-03T05:30:05.765Z,0.00
2018-08-03T05:31:05.649Z,0.00
2018-08-03T05:32:58.337Z,0.00
2018-08-03T05:33:58.230Z,0.00
2018-08-03T05:35:51.003Z,0.00
2018-08-03T05:36:50.823Z,0.00
2018-08-03T05:38:43.542Z,0.00
2018-08-03T05:39:43.425Z,0.00
2018-08-03T05:41:36.108Z,0.00
2018-08-03T05:42:36.070Z,0.00
2018-08-03T05:44:28.710Z,0.00
2018-08-03T05:45:28.636Z,0.00
2018-08-03T05:47:21.287Z,0.00
2018-08-03T05:48:21.186Z,0.00
2018-08-03T05:50:13.949Z,0.00
2018-08-03T05:51:13.775Z,0.00
2018-08-03T05:53:06.471Z,0.00
2018-08-03T05:54:06.365Z,0.00
2018-08-03T05:55:59.081Z,0.00
2018-08-03T05:56:58.967Z,0.00
2018-08-03T05:58:51.659Z,0.00
2018-08-03T05:59:51.560Z,0.00
2018-08-03T06:01:44.265Z,0.00
2018-08-03T06:02:44.153Z,0.00
2018-08-03T06:04:36.864Z,0.00
2018-08-03T06:05:36.742Z,0.00
2018-08-03T06:07:29.440Z,0.00
2018-08-03T06:08:29.338Z,0.00
2018-08-03T06:10:22.053Z,0.00
2018-08-03T06:11:21.938Z,0.00
2018-08-03T06:13:14.626Z,0.00
2018-08-03T06:14:14.534Z,0.00
2018-08-03T06:16:07.236Z,0.00
2018-08-03T06:17:07.127Z,0.00
2018-08-03T06:18:59.807Z,0.00
2018-08-03T06:19:59.706Z,0.00
2018-08-03T06:21:52.409Z,0.00
2018-08-03T06:22:52.299Z,0.00
2018-08-03T06:24:44.998Z,0.00
2018-08-03T06:25:44.891Z,0.00
2018-08-03T06:27:37.599Z,0.00
2018-08-03T06:28:37.482Z,0.00
2018-08-03T06:30:30.179Z,0.00
2018-08-03T06:31:30.082Z,0.00
2018-08-03T06:33:22.803Z,0.00
2018-08-03T06:34:22.675Z,0.00
2018-08-03T06:36:15.368Z,0.00
2018-08-03T06:37:15.269Z,0.00
2018-08-03T06:39:07.986Z,0.00
2018-08-03T06:40:07.869Z,0.00
2018-08-03T06:42:00.562Z,43584.00
2018-08-03T06:43:00.469Z,46496.00
2018-08-03T06:44:53.195Z,43648.00
2018-08-03T06:45:53.132Z,42432.00
2018-08-03T06:47:45.790Z,47872.00
2018-08-03T06:48:45.701Z,49664.00
2018-08-03T06:50:38.436Z,48544.00
2018-08-03T06:51:38.317Z,49984.00
2018-08-03T06:53:31.047Z,46336.00
2018-08-03T06:54:30.951Z,45696.00
2018-08-03T06:56:23.651Z,49632.00
2018-08-03T06:57:23.568Z,48416.00
2018-08-03T06:59:16.292Z,48896.00
2018-08-03T07:00:16.190Z,44768.00
2018-08-03T07:02:08.922Z,40032.00
2018-08-03T07:03:08.808Z,39296.00
2018-08-03T07:05:01.551Z,39488.00
2018-08-03T07:06:01.444Z,39072.00
2018-08-03T07:07:54.167Z,40128.00
2018-08-03T07:08:54.068Z,40320.00
2018-08-03T07:10:47.290Z,39264.00
2018-08-03T07:11:47.182Z,39008.00
2018-08-03T07:13:39.916Z,37536.00
2018-08-03T07:14:39.890Z,37248.00
2018-08-03T07:16:32.544Z,37568.00
2018-08-03T07:17:32.443Z,37952.00
2018-08-03T07:19:25.157Z,42656.00
2018-08-03T07:20:25.181Z,45344.00
2018-08-03T07:22:17.805Z,54496.00
2018-08-03T07:23:17.694Z,57216.00
2018-08-03T07:25:10.416Z,55168.00
2018-08-03T07:26:10.329Z,53568.00
2018-08-03T07:28:03.064Z,54592.00
2018-08-03T07:29:02.964Z,55488.00
2018-08-03T07:30:55.734Z,57120.00
2018-08-03T07:31:55.604Z,57184.00
2018-08-03T07:33:48.332Z,59360.00
2018-08-03T07:34:48.234Z,59840.00
2018-08-03T07:36:40.946Z,57856.00
2018-08-03T07:37:40.867Z,60448.00
2018-08-03T07:39:33.614Z,54624.00
2018-08-03T07:40:33.509Z,56416.00
2018-08-03T07:42:26.250Z,60416.00
2018-08-03T07:43:26.198Z,60032.00
2018-08-03T07:45:18.872Z,59712.00
2018-08-03T07:46:18.786Z,60000.00
2018-08-03T07:48:11.524Z,57568.00
2018-08-03T07:49:11.423Z,60896.00
2018-08-03T07:51:04.147Z,64832.00
2018-08-03T07:52:04.062Z,67840.00
2018-08-03T07:53:56.803Z,64064.00
2018-08-03T07:54:56.699Z,62976.00
2018-08-03T07:56:49.419Z,62496.00
2018-08-03T07:57:49.336Z,63936.00
2018-08-03T07:59:42.076Z,61856.00
2018-08-03T08:00:41.977Z,61856.00
2018-08-03T08:02:34.698Z,58464.00
2018-08-03T08:03:34.613Z,56736.00
2018-08-03T08:05:27.349Z,55328.00
2018-08-03T08:06:27.251Z,57952.00
2018-08-03T08:08:19.976Z,57856.00
2018-08-03T08:09:19.893Z,57856.00
2018-08-03T08:11:12.640Z,65280.00
2018-08-03T08:12:12.547Z,65312.00
2018-08-03T08:14:05.261Z,68992.00
2018-08-03T08:15:05.178Z,64736.00
2018-08-03T08:16:57.935Z,64832.00
2018-08-03T08:17:57.817Z,59648.00
2018-08-03T08:19:50.536Z,56192.00
2018-08-03T08:20:50.444Z,61536.00
2018-08-03T08:22:43.185Z,62688.00
2018-08-03T08:23:43.097Z,62432.00
2018-08-03T08:25:35.821Z,60160.00
2018-08-03T08:26:35.719Z,59680.00
2018-08-03T08:28:28.432Z,63008.00
2018-08-03T08:29:28.348Z,59680.00
2018-08-03T08:31:21.091Z,56864.00
2018-08-03T08:32:20.986Z,59168.00
2018-08-03T08:34:13.719Z,55936.00
2018-08-03T08:35:13.615Z,57632.00
2018-08-03T08:37:06.383Z,54848.00
2018-08-03T08:38:06.265Z,58720.00
2018-08-03T08:39:58.975Z,57952.00
2018-08-03T08:40:58.892Z,58752.00
2018-08-03T08:42:51.622Z,55744.00
2018-08-03T08:43:51.533Z,41856.00
2018-08-03T08:45:44.253Z,17056.00
2018-08-03T08:46:44.155Z,14616.00
2018-08-03T08:48:36.883Z,12428.00
2018-08-03T08:49:36.802Z,11664.00
2018-08-03T08:51:29.535Z,10500.00
2018-08-03T08:52:29.434Z,10180.00
2018-08-03T08:54:22.149Z,9520.00
2018-08-03T08:55:22.057Z,9248.00
2018-08-03T08:57:14.792Z,9044.00
2018-08-03T08:58:14.680Z,9048.00
2018-08-03T09:00:07.391Z,8976.00
2018-08-03T09:01:07.321Z,8964.00
2018-08-03T09:03:00.027Z,8944.00
2018-08-03T09:03:59.918Z,8916.00
2018-08-03T09:05:52.627Z,8816.00
2018-08-03T09:06:52.565Z,8748.00
2018-08-03T09:08:45.254Z,8688.00
2018-08-03T09:09:45.149Z,8596.00
2018-08-03T09:11:37.852Z,8544.00
2018-08-03T09:12:37.771Z,8448.00
2018-08-03T09:14:30.504Z,8336.00
2018-08-03T09:15:30.374Z,8312.00
2018-08-03T09:17:23.082Z,8264.00
2018-08-03T09:18:23.042Z,8280.00
2018-08-03T09:20:15.708Z,8268.00
2018-08-03T09:21:15.603Z,8312.00
2018-08-03T09:23:08.311Z,8336.00
2018-08-03T09:24:08.218Z,8288.00
2018-08-03T09:26:00.931Z,8340.00
2018-08-03T09:27:00.821Z,8336.00
2018-08-03T09:28:53.528Z,8372.00
2018-08-03T09:29:53.431Z,8344.00
2018-08-03T09:31:46.156Z,8344.00
2018-08-03T09:32:46.051Z,8336.00
2018-08-03T09:34:38.766Z,8280.00
2018-08-03T09:35:38.648Z,8224.00
2018-08-03T09:37:31.350Z,8104.00
2018-08-03T09:38:31.255Z,8040.00
2018-08-03T09:40:23.968Z,7952.00
2018-08-03T09:41:23.857Z,7908.00
2018-08-03T09:43:16.587Z,7872.00
2018-08-03T09:44:16.485Z,7864.00
2018-08-03T09:46:09.189Z,7820.00
2018-08-03T09:47:09.080Z,7880.00
2018-08-03T09:49:01.779Z,7864.00
2018-08-03T09:50:01.683Z,7828.00
2018-08-03T09:51:54.416Z,7868.00
2018-08-03T09:52:54.293Z,7856.00
2018-08-03T09:54:46.999Z,7824.00
2018-08-03T09:55:46.908Z,7776.00
2018-08-03T09:57:39.631Z,7716.00
2018-08-03T09:58:39.527Z,7676.00
2018-08-03T10:00:32.258Z,7596.00
2018-08-03T10:01:32.166Z,7536.00
2018-08-03T10:03:24.887Z,7540.00
2018-08-03T10:04:24.777Z,7512.00
2018-08-03T10:06:17.473Z,7512.00
2018-08-03T10:07:17.404Z,7504.00
2018-08-03T10:09:10.106Z,7460.00
2018-08-03T10:10:09.988Z,7444.00
2018-08-03T10:12:02.700Z,7400.00
2018-08-03T10:13:02.600Z,7380.00
2018-08-03T10:14:55.324Z,7284.00
2018-08-03T10:15:55.218Z,7324.00
2018-08-03T10:17:47.916Z,7348.00
2018-08-03T10:18:47.820Z,7340.00
2018-08-03T10:20:40.543Z,7368.00
2018-08-03T10:21:40.435Z,7348.00
2018-08-03T10:23:33.138Z,7308.00
2018-08-03T10:24:33.047Z,7292.00
2018-08-03T10:26:25.769Z,7280.00
2018-08-03T10:27:25.657Z,7332.00
2018-08-03T10:29:18.352Z,7452.00
2018-08-03T10:30:18.261Z,7444.00
2018-08-03T10:32:10.984Z,7316.00
2018-08-03T10:33:10.863Z,6916.00
2018-08-03T10:35:03.625Z,6568.00
2018-08-03T10:36:03.490Z,6492.00
2018-08-03T10:37:56.190Z,6392.00
2018-08-03T10:38:56.093Z,6512.00
2018-08-03T10:40:48.827Z,6944.00
2018-08-03T10:41:48.722Z,6796.00
2018-08-03T10:43:41.421Z,6908.00
2018-08-03T10:44:41.330Z,6712.00
2018-08-03T10:46:34.054Z,7052.00
2018-08-03T10:47:33.945Z,7496.00
2018-08-03T10:49:26.643Z,7676.00
2018-08-03T10:50:26.551Z,7672.00
2018-08-03T10:52:19.271Z,7748.00
2018-08-03T10:53:19.166Z,7644.00
2018-08-03T10:55:11.883Z,7520.00
2018-08-03T10:56:11.768Z,7436.00
2018-08-03T10:58:04.498Z,7168.00
2018-08-03T10:59:04.394Z,6984.00
2018-08-03T11:00:57.091Z,6840.00
2018-08-03T11:01:57.001Z,6820.00
2018-08-03T11:03:49.723Z,6832.00
2018-08-03T11:04:49.614Z,6848.00
2018-08-03T11:06:42.368Z,7076.00
2018-08-03T11:07:42.246Z,7252.00
2018-08-03T11:09:34.932Z,7092.00
2018-08-03T11:10:34.834Z,6960.00
2018-08-03T11:12:27.620Z,6792.00
2018-08-03T11:13:27.514Z,6748.00
2018-08-03T11:15:20.216Z,6936.00
2018-08-03T11:16:20.122Z,7116.00
2018-08-03T11:18:12.841Z,7360.00
2018-08-03T11:19:12.736Z,7476.00
2018-08-03T11:21:05.447Z,7720.00
2018-08-03T11:22:05.353Z,8116.00
2018-08-03T11:23:58.070Z,9468.00
2018-08-03T11:24:57.960Z,9512.00
2018-08-03T11:26:50.674Z,7852.00
2018-08-03T11:27:50.571Z,7704.00
2018-08-03T11:29:43.312Z,6996.00
2018-08-03T11:30:43.192Z,6904.00
2018-08-03T11:32:35.888Z,6924.00
2018-08-03T11:33:35.798Z,7064.00
2018-08-03T11:35:28.528Z,7364.00
2018-08-03T11:36:28.415Z,7496.00
2018-08-03T11:38:21.123Z,7680.00
2018-08-03T11:39:21.025Z,7684.00
2018-08-03T11:41:13.745Z,7816.00
2018-08-03T11:42:13.631Z,7820.00
2018-08-03T11:44:06.364Z,7792.00
2018-08-03T11:45:06.245Z,7892.00
2018-08-03T11:46:58.943Z,8100.00
2018-08-03T11:47:58.856Z,7480.00
2018-08-03T11:49:51.571Z,7712.00
2018-08-03T11:50:51.465Z,7544.00
2018-08-03T11:52:44.165Z,7408.00
2018-08-03T11:53:44.075Z,7380.00
2018-08-03T11:55:36.804Z,7420.00
2018-08-03T11:56:36.688Z,7376.00
2018-08-03T11:58:29.387Z,7496.00
2018-08-03T11:59:29.295Z,7744.00
2018-08-03T12:01:22.029Z,7936.00
2018-08-03T12:02:21.910Z,8036.00
2018-08-03T12:04:14.624Z,7856.00
2018-08-03T12:05:14.521Z,7616.00
2018-08-03T12:07:07.259Z,6996.00
2018-08-03T12:08:07.146Z,6700.00
2018-08-03T12:09:59.846Z,6260.00
2018-08-03T12:10:59.751Z,5684.00
2018-08-03T12:12:52.499Z,5824.00
2018-08-03T12:13:52.368Z,6028.00
2018-08-03T12:15:45.092Z,6120.00
2018-08-03T12:16:44.982Z,6260.00
2018-08-03T12:18:37.686Z,6308.00
2018-08-03T12:19:37.593Z,6288.00
2018-08-03T12:21:30.318Z,6188.00
2018-08-03T12:22:30.195Z,6236.00
2018-08-03T12:24:22.900Z,6540.00
2018-08-03T12:25:22.807Z,6248.00
2018-08-03T12:27:15.523Z,6568.00
2018-08-03T12:28:15.414Z,6932.00
2018-08-03T12:30:08.115Z,7080.00
2018-08-03T12:31:08.064Z,7312.00
2018-08-03T12:33:00.747Z,7720.00
2018-08-03T12:34:00.629Z,7820.00
2018-08-03T12:35:53.342Z,7808.00
2018-08-03T12:36:53.258Z,7972.00
2018-08-03T12:38:45.971Z,7872.00
2018-08-03T12:39:45.860Z,7544.00
2018-08-03T12:41:38.568Z,6752.00
2018-08-03T12:42:38.477Z,6712.00
2018-08-03T12:44:31.216Z,6388.00
2018-08-03T12:45:33.997Z,6084.00
2018-08-03T12:47:23.796Z,6088.00
2018-08-03T12:48:23.700Z,6188.00
2018-08-03T12:50:16.449Z,6152.00
2018-08-03T12:51:16.313Z,5944.00
2018-08-03T12:53:09.043Z,5052.00
2018-08-03T12:54:08.976Z,4760.00
2018-08-03T12:56:01.631Z,4592.00
2018-08-03T12:57:01.540Z,4564.00
2018-08-03T12:58:54.263Z,4620.00
2018-08-03T12:59:54.205Z,4708.00
2018-08-03T13:01:46.857Z,4852.00
2018-08-03T13:02:46.767Z,4908.00
2018-08-03T13:04:39.505Z,5164.00
2018-08-03T13:05:39.385Z,5812.00
2018-08-03T13:07:32.133Z,5804.00
2018-08-03T13:08:32.192Z,5056.00
2018-08-03T13:10:24.713Z,4784.00
2018-08-03T13:11:24.613Z,4768.00
2018-08-03T13:13:17.369Z,5408.00
2018-08-03T13:14:17.206Z,6012.00
2018-08-03T13:16:09.931Z,6124.00
2018-08-03T13:17:09.823Z,5844.00
2018-08-03T13:19:02.517Z,5104.00
2018-08-03T13:20:02.428Z,4740.00
2018-08-03T13:21:55.150Z,4720.00
2018-08-03T13:22:55.040Z,4812.00
2018-08-03T13:24:47.744Z,5596.00
2018-08-03T13:25:47.655Z,5876.00
2018-08-03T13:27:40.373Z,6044.00
2018-08-03T13:28:40.266Z,5612.00
2018-08-03T13:30:32.986Z,5708.00
2018-08-03T13:31:32.873Z,5868.00
2018-08-03T13:33:25.578Z,5712.00
2018-08-03T13:34:25.485Z,5312.00
2018-08-03T13:36:18.237Z,5732.00
2018-08-03T13:37:18.090Z,5488.00
2018-08-03T13:39:10.867Z,5836.00
2018-08-03T13:40:10.697Z,5232.00
2018-08-03T13:42:03.413Z,5136.00
2018-08-03T13:43:03.308Z,5112.00
2018-08-03T13:44:56.011Z,5120.00
2018-08-03T13:45:55.919Z,5068.00
2018-08-03T13:47:48.640Z,5056.00
2018-08-03T13:48:48.527Z,5044.00
2018-08-03T13:50:41.273Z,5000.00
2018-08-03T13:51:41.151Z,5004.00
2018-08-03T13:53:33.857Z,5504.00
2018-08-03T13:54:33.756Z,5724.00
2018-08-03T13:56:26.495Z,5736.00
2018-08-03T13:57:26.372Z,5732.00
2018-08-03T13:59:19.076Z,5812.00
2018-08-03T14:00:18.978Z,5852.00
2018-08-03T14:02:11.703Z,5980.00
2018-08-03T14:03:11.598Z,6044.00
2018-08-03T14:05:04.298Z,6056.00
2018-08-03T14:06:04.204Z,5960.00
2018-08-03T14:07:56.926Z,5876.00
2018-08-03T14:08:56.815Z,5860.00
2018-08-03T14:10:49.517Z,5836.00
2018-08-03T14:11:49.416Z,5808.00
2018-08-03T14:13:42.140Z,5848.00
2018-08-03T14:14:42.026Z,5936.00
2018-08-03T14:16:34.763Z,5940.00
2018-08-03T14:17:34.654Z,5956.00
2018-08-03T14:19:27.367Z,6052.00
2018-08-03T14:20:27.262Z,6036.00
2018-08-03T14:22:19.998Z,5864.00
2018-08-03T14:23:19.883Z,5788.00
2018-08-03T14:25:12.580Z,5560.00
2018-08-03T14:26:12.488Z,5100.00
2018-08-03T14:28:05.213Z,5316.00
2018-08-03T14:29:05.118Z,5440.00
2018-08-03T14:30:57.829Z,5596.00
2018-08-03T14:31:57.711Z,5644.00
2018-08-03T14:33:50.433Z,5028.00
2018-08-03T14:34:50.322Z,5056.00
2018-08-03T14:36:43.029Z,5536.00
2018-08-03T14:37:42.932Z,4968.00
2018-08-03T14:39:35.662Z,4676.00
2018-08-03T14:40:35.552Z,4936.00
2018-08-03T14:42:28.258Z,5020.00
2018-08-03T14:43:28.155Z,5048.00
2018-08-03T14:45:20.875Z,4924.00
2018-08-03T14:46:20.765Z,5020.00
2018-08-03T14:48:13.462Z,5184.00
2018-08-03T14:49:13.388Z,5092.00
2018-08-03T14:51:06.085Z,4192.00
2018-08-03T14:52:05.981Z,4168.00
2018-08-03T14:53:58.704Z,4664.00
2018-08-03T14:54:58.579Z,4904.00
2018-08-03T14:56:51.287Z,5180.00
2018-08-03T14:57:51.195Z,5104.00
2018-08-03T14:59:43.913Z,5416.00
2018-08-03T15:00:43.807Z,5380.00
2018-08-03T15:02:36.510Z,5236.00
2018-08-03T15:03:36.419Z,5080.00
2018-08-03T15:05:29.140Z,4768.00
2018-08-03T15:06:29.033Z,4708.00
2018-08-03T15:08:21.727Z,4656.00
2018-08-03T15:09:21.639Z,4684.00
2018-08-03T15:11:14.354Z,4736.00
2018-08-03T15:12:14.250Z,4780.00
2018-08-03T15:14:07.053Z,4756.00
2018-08-03T15:15:06.859Z,4804.00
2018-08-03T15:16:59.577Z,5044.00
2018-08-03T15:17:59.468Z,5032.00
2018-08-03T15:19:52.181Z,5060.00
2018-08-03T15:20:52.071Z,5140.00
2018-08-03T15:22:44.794Z,4884.00
2018-08-03T15:23:44.686Z,5200.00
2018-08-03T15:25:37.401Z,4844.00
2018-08-03T15:26:37.307Z,4884.00
2018-08-03T15:28:30.024Z,4972.00
2018-08-03T15:29:29.907Z,5008.00
2018-08-03T15:31:22.651Z,4964.00
2018-08-03T15:32:22.525Z,4940.00
2018-08-03T15:34:15.236Z,4936.00
2018-08-03T15:35:15.143Z,4628.00
2018-08-03T15:37:07.846Z,4684.00
2018-08-03T15:38:07.735Z,4500.00
2018-08-03T15:40:00.513Z,4696.00
2018-08-03T15:41:00.427Z,4428.00
2018-08-03T15:42:53.065Z,4220.00
2018-08-03T15:43:52.958Z,4748.00
2018-08-03T15:45:45.656Z,4864.00
2018-08-03T15:46:45.562Z,4892.00
2018-08-03T15:48:38.284Z,4916.00
2018-08-03T15:49:38.181Z,4456.00
2018-08-03T15:51:30.880Z,4616.00
2018-08-03T15:52:30.797Z,4740.00
2018-08-03T15:54:23.510Z,4424.00
2018-08-03T15:55:23.397Z,4376.00
2018-08-03T15:57:16.111Z,4108.00
2018-08-03T15:58:16.004Z,4036.00
2018-08-03T16:00:09.723Z,3904.00
2018-08-03T16:01:09.616Z,3856.00
2018-08-03T16:03:02.359Z,3800.00
2018-08-03T16:04:02.292Z,3788.00
2018-08-03T16:05:54.968Z,3708.00
2018-08-03T16:06:54.859Z,3652.00
2018-08-03T16:08:47.578Z,3640.00
2018-08-03T16:09:47.454Z,3616.00
2018-08-03T16:11:40.159Z,3584.00
2018-08-03T16:12:40.069Z,3552.00
2018-08-03T16:14:32.782Z,3500.00
2018-08-03T16:15:32.668Z,3468.00
2018-08-03T16:17:25.376Z,3388.00
2018-08-03T16:18:25.277Z,3352.00
2018-08-03T16:20:18.009Z,3284.00
2018-08-03T16:21:17.893Z,3240.00
2018-08-03T16:23:10.593Z,3212.00
2018-08-03T16:24:10.498Z,3208.00
2018-08-03T16:26:03.213Z,3208.00
2018-08-03T16:27:03.105Z,3216.00
2018-08-03T16:28:55.813Z,3208.00
2018-08-03T16:29:55.706Z,3188.00
2018-08-03T16:31:48.418Z,3144.00
2018-08-03T16:32:48.355Z,3160.00
2018-08-03T16:34:41.013Z,3180.00
2018-08-03T16:35:40.919Z,3200.00
2018-08-03T16:37:33.630Z,3268.00
2018-08-03T16:38:33.530Z,3296.00
2018-08-03T16:40:26.237Z,3376.00
2018-08-03T16:41:26.165Z,3428.00
2018-08-03T16:43:18.831Z,3688.00
2018-08-03T16:44:18.736Z,3680.00
2018-08-03T16:46:11.454Z,3824.00
2018-08-03T16:47:11.343Z,3812.00
2018-08-03T16:49:04.049Z,3824.00
2018-08-03T16:50:03.959Z,3836.00
2018-08-03T16:51:56.683Z,3856.00
2018-08-03T16:52:56.573Z,3880.00
2018-08-03T16:54:49.269Z,3908.00
2018-08-03T16:55:49.181Z,3924.00
2018-08-03T16:57:41.897Z,3868.00
2018-08-03T16:58:41.784Z,3856.00
2018-08-03T17:00:34.506Z,3736.00
2018-08-03T17:01:34.392Z,3740.00
2018-08-03T17:03:27.093Z,3756.00
2018-08-03T17:04:27.003Z,3748.00
2018-08-03T17:06:19.715Z,3740.00
2018-08-03T17:07:19.616Z,3672.00
2018-08-03T17:09:12.308Z,3648.00
2018-08-03T17:10:12.209Z,3652.00
2018-08-03T17:12:04.934Z,3704.00
2018-08-03T17:13:04.815Z,3728.00
2018-08-03T17:14:57.522Z,3728.00
2018-08-03T17:15:57.424Z,3712.00
2018-08-03T17:17:50.142Z,3660.00
2018-08-03T17:18:50.041Z,3628.00
2018-08-03T17:20:42.738Z,3564.00
2018-08-03T17:21:42.643Z,3516.00
2018-08-03T17:23:35.363Z,3420.00
2018-08-03T17:24:35.253Z,3352.00
2018-08-03T17:26:27.959Z,3204.00
2018-08-03T17:27:27.866Z,3120.00
2018-08-03T17:29:20.579Z,3084.00
2018-08-03T17:30:20.464Z,3064.00
2018-08-03T17:32:13.194Z,3052.00
2018-08-03T17:33:13.103Z,3044.00
2018-08-03T17:35:05.836Z,3024.00
2018-08-03T17:36:05.710Z,3008.00
2018-08-03T17:37:58.431Z,2968.00
2018-08-03T17:38:58.324Z,2936.00
2018-08-03T17:40:51.026Z,2932.00
2018-08-03T17:41:50.954Z,2916.00
2018-08-03T17:43:43.857Z,2872.00
2018-08-03T17:44:43.573Z,2844.00
2018-08-03T17:46:36.372Z,2788.00
2018-08-03T17:47:36.328Z,2752.00
2018-08-03T17:49:29.320Z,2680.00
2018-08-03T17:50:28.971Z,2636.00
2018-08-03T17:52:21.657Z,2540.00
2018-08-03T17:53:21.404Z,2548.00
2018-08-03T17:55:14.116Z,2504.00
2018-08-03T17:56:14.009Z,2500.00
2018-08-03T17:58:06.729Z,2400.00
2018-08-03T17:59:06.621Z,2332.00
2018-08-03T18:00:59.314Z,2236.00
2018-08-03T18:01:59.220Z,2192.00
2018-08-03T18:03:51.940Z,2120.00
2018-08-03T18:04:51.827Z,2076.00
2018-08-03T18:06:44.532Z,2008.00
2018-08-03T18:07:44.437Z,1972.00
2018-08-03T18:09:37.144Z,1904.00
2018-08-03T18:10:37.040Z,1876.00
2018-08-03T18:12:29.751Z,1816.00
2018-08-03T18:13:29.645Z,1792.00
2018-08-03T18:15:22.357Z,1744.00
2018-08-03T18:16:22.244Z,1720.00
2018-08-03T18:18:14.975Z,1672.00
2018-08-03T18:19:14.917Z,1644.00
2018-08-03T18:21:07.599Z,1588.00
2018-08-03T18:22:07.487Z,1560.00
2018-08-03T18:24:00.187Z,1500.00
2018-08-03T18:25:00.089Z,1472.00
2018-08-03T18:26:52.826Z,1416.00
2018-08-03T18:27:52.691Z,1388.00
2018-08-03T18:29:45.406Z,1332.00
2018-08-03T18:30:45.295Z,1300.00
2018-08-03T18:32:37.998Z,1256.00
2018-08-03T18:33:37.899Z,1228.00
2018-08-03T18:35:30.626Z,1168.00
2018-08-03T18:36:30.500Z,1140.00
2018-08-03T18:38:23.200Z,1096.00
2018-08-03T18:39:23.100Z,1072.00
2018-08-03T18:41:15.893Z,1020.00
2018-08-03T18:42:15.783Z,992.00
2018-08-03T18:44:08.479Z,940.00
2018-08-03T18:45:08.383Z,912.00
2018-08-03T18:47:01.103Z,856.00
2018-08-03T18:48:00.989Z,828.00
2018-08-03T18:49:53.685Z,776.00
2018-08-03T18:50:53.586Z,752.00
2018-08-03T18:52:46.312Z,700.00
2018-08-03T18:53:46.207Z,668.00
2018-08-03T18:55:38.893Z,620.00
2018-08-03T18:56:38.806Z,592.00
2018-08-03T18:58:31.525Z,536.00
2018-08-03T18:59:31.407Z,512.00
2018-08-03T19:01:24.128Z,472.00
2018-08-03T19:02:24.009Z,448.00
2018-08-03T19:04:16.704Z,408.00
2018-08-03T19:05:16.608Z,384.00
2018-08-03T19:07:09.323Z,340.00
2018-08-03T19:08:09.219Z,316.00
2018-08-03T19:10:01.930Z,284.00
2018-08-03T19:11:01.809Z,284.00
2018-08-03T19:12:54.522Z,220.00
2018-08-03T19:13:54.407Z,204.00
2018-08-03T19:15:47.105Z,184.00
2018-08-03T19:16:47.004Z,184.00
2018-08-03T19:18:39.714Z,132.00
2018-08-03T19:19:39.600Z,120.00
2018-08-03T19:21:32.291Z,104.00
2018-08-03T19:22:32.195Z,104.00
2018-08-03T19:24:24.926Z,76.00
2018-08-03T19:25:24.797Z,68.00
2018-08-03T19:27:17.491Z,56.00
2018-08-03T19:28:17.388Z,56.00
2018-08-03T19:30:10.119Z,36.00
2018-08-03T19:31:10.007Z,36.00
2018-08-03T19:33:02.717Z,28.00
2018-08-03T19:34:02.609Z,28.00
2018-08-03T19:35:55.303Z,20.00
2018-08-03T19:36:55.211Z,16.00
2018-08-03T19:38:47.924Z,12.00
2018-08-03T19:39:47.812Z,12.00
2018-08-03T19:41:40.499Z,8.00
2018-08-03T19:42:40.399Z,4.00
2018-08-03T19:44:33.113Z,8.00
2018-08-03T19:45:33.003Z,8.00
2018-08-03T19:47:25.713Z,4.00
2018-08-03T19:48:25.605Z,4.00
2018-08-03T19:50:18.330Z,0.00
2018-08-03T19:51:18.197Z,0.00
2018-08-03T19:53:10.895Z,4.00
2018-08-03T19:54:10.804Z,0.00
2018-08-03T19:56:03.509Z,0.00
2018-08-03T19:57:03.396Z,0.00
2018-08-03T19:58:56.156Z,0.00
2018-08-03T19:59:55.991Z,0.00
2018-08-03T20:01:48.706Z,0.00
2018-08-03T20:02:48.600Z,0.00
2018-08-03T20:04:41.301Z,0.00
2018-08-03T20:05:41.184Z,0.00
2018-08-03T20:07:33.903Z,0.00
2018-08-03T20:08:33.878Z,0.00
2018-08-03T20:10:26.495Z,0.00
2018-08-03T20:11:26.390Z,0.00
2018-08-03T20:13:19.075Z,0.00
2018-08-03T20:14:18.980Z,0.00
2018-08-03T20:16:11.696Z,0.00
2018-08-03T20:17:11.574Z,0.00
2018-08-03T20:19:04.284Z,0.00
2018-08-03T20:20:04.194Z,0.00
2018-08-03T20:21:56.891Z,0.00
2018-08-03T20:22:56.774Z,0.00
2018-08-03T20:24:49.470Z,0.00
2018-08-03T20:25:49.378Z,0.00
2018-08-03T20:27:42.081Z,0.00
2018-08-03T20:28:41.969Z,0.00
2018-08-03T20:30:34.733Z,0.00
2018-08-03T20:31:34.565Z,0.00
2018-08-03T20:33:27.253Z,0.00
2018-08-03T20:34:27.156Z,0.00
2018-08-03T20:36:19.911Z,0.00
2018-08-03T20:37:19.751Z,0.00
2018-08-03T20:39:12.500Z,0.00
2018-08-03T20:40:12.353Z,0.00
2018-08-03T20:42:05.064Z,0.00
2018-08-03T20:43:04.950Z,0.00
2018-08-03T20:44:57.641Z,0.00
2018-08-03T20:45:57.549Z,0.00
2018-08-03T20:47:50.261Z,0.00
2018-08-03T20:48:50.149Z,0.00
2018-08-03T20:50:42.835Z,0.00
2018-08-03T20:51:42.737Z,0.00
2018-08-03T20:53:35.465Z,0.00
2018-08-03T20:54:35.355Z,0.00
2018-08-03T20:56:28.072Z,0.00
2018-08-03T20:57:28.053Z,0.00
2018-08-03T20:59:20.641Z,0.00
2018-08-03T21:00:20.538Z,0.00
2018-08-03T21:02:13.244Z,0.00
2018-08-03T21:03:13.300Z,0.00
2018-08-03T21:05:05.827Z,0.00
2018-08-03T21:06:05.722Z,0.00
2018-08-03T21:07:58.471Z,0.00
2018-08-03T21:08:58.304Z,0.00
2018-08-03T21:10:51.009Z,0.00
2018-08-03T21:11:50.904Z,0.00
2018-08-03T21:13:43.612Z,0.00
2018-08-03T21:14:43.492Z,0.00
2018-08-03T21:16:36.191Z,0.00
2018-08-03T21:17:36.112Z,0.00
2018-08-03T21:19:28.804Z,0.00
2018-08-03T21:20:28.706Z,0.00
2018-08-03T21:22:21.405Z,0.00
2018-08-03T21:23:21.304Z,0.00
2018-08-03T21:25:14.011Z,0.00
2018-08-03T21:26:13.902Z,0.00
2018-08-03T21:28:06.587Z,0.00
2018-08-03T21:29:06.491Z,0.00
2018-08-03T21:30:59.199Z,0.00
2018-08-03T21:31:59.086Z,0.00
2018-08-03T21:33:51.798Z,0.00
2018-08-03T21:34:51.675Z,0.00
2018-08-03T21:36:44.370Z,0.00
2018-08-03T21:37:44.270Z,0.00
2018-08-03T21:39:36.980Z,0.00
2018-08-03T21:40:36.890Z,0.00
2018-08-03T21:42:29.567Z,0.00
2018-08-03T21:43:29.460Z,0.00
2018-08-03T21:45:22.171Z,0.00
2018-08-03T21:46:22.059Z,0.00
2018-08-03T21:48:14.747Z,0.00